Time;durP1;ratioP1;P1;durP2;ratioP2;P2;SDS_P1;SDS_P2;PMS_P1;PMS_P2;Temp;Humidity;BMP_temperature;BMP_pressure;BME280_temperature;BME280_humidity;BME280_pressure;Samples;Min_cycle;Max_cycle;Signal;HPM_P1;HPM_P2
2022/10/30 00:00:53;;;;;;;;;;;;;;;12.03;100.00;100696.78;4993614;28;19967;-78
2022/10/30 00:03:19;;;;;;;;;;;;;;;12.03;100.00;100699.56;4992369;28;19932;-78
2022/10/30 00:05:45;;;;;;;;;;;;;;;12.08;100.00;100704.63;4994451;28;19921;-78
2022/10/30 00:08:11;;;;;;;;;;;;;;;12.11;100.00;100700.16;4993391;28;20386;-78
2022/10/30 00:10:37;;;;;;;;;;;;;;;12.09;100.00;100700.59;4976762;28;19925;-78
2022/10/30 00:13:02;;;;;;;;;;;;;;;12.06;100.00;100695.91;4994575;28;20009;-78
2022/10/30 00:15:27;;;;;;;;;;;;;;;12.00;100.00;100692.09;4992580;28;19918;-78
2022/10/30 00:17:53;;;;;;;;;;;;;;;11.98;100.00;100694.50;4992690;28;19945;-78
2022/10/30 00:20:18;;;;;;;;;;;;;;;11.91;100.00;100691.09;4993214;28;19922;-78
2022/10/30 00:22:43;;;;;;;;;;;;;;;11.95;100.00;100689.81;4992295;28;20371;-78
2022/10/30 00:25:09;;;;;;;;;;;;;;;11.91;100.00;100685.53;4993322;28;20028;-78
2022/10/30 00:27:34;;;;;;;;;;;;;;;11.87;100.00;100677.28;4993565;28;19965;-78
2022/10/30 00:29:59;;;;;;;;;;;;;;;11.90;100.00;100679.19;4993742;28;20302;-78
2022/10/30 00:32:25;;;;;;;;;;;;;;;11.88;100.00;100673.28;4985651;28;19942;-78
2022/10/30 00:34:50;;;;;;;;;;;;;;;11.85;100.00;100668.56;4983279;28;20358;-78
2022/10/30 00:37:15;;;;;;;;;;;;;;;11.87;100.00;100671.72;4986208;28;19918;-78
2022/10/30 00:39:41;;;;;;;;;;;;;;;11.90;100.00;100675.63;4993454;28;19918;-78
2022/10/30 00:42:08;;;;;;;;;;;;;;;11.87;100.00;100673.69;4985661;28;20284;-78
2022/10/30 00:44:40;;;;;;;;;;;;;;;11.88;100.00;100673.28;4968161;28;19918;-78
2022/10/30 00:47:07;;;;;;;;;;;;;;;11.92;100.00;100676.78;4975889;28;19921;-78
2022/10/30 00:49:34;;;;;;;;;;;;;;;11.95;100.00;100673.13;4986151;28;20286;-78
2022/10/30 00:51:59;;;;;;;;;;;;;;;11.98;100.00;100672.25;4990458;28;19937;-78
2022/10/30 00:54:25;;;;;;;;;;;;;;;11.98;100.00;100672.25;4990428;28;20093;-78
2022/10/30 00:56:50;;;;;;;;;;;;;;;11.95;100.00;100667.56;4988609;28;20421;-78
2022/10/30 00:59:16;;;;;;;;;;;;;;;11.96;100.00;100674.69;4988767;28;19924;-78
2022/10/30 01:01:42;;;;;;;;;;;;;;;11.89;100.00;100677.59;4984538;28;20433;-78
2022/10/30 01:04:07;;;;;;;;;;;;;;;11.82;100.00;100668.66;4989233;28;19964;-78
2022/10/30 01:06:34;;;;;;;;;;;;;;;11.83;100.00;100657.09;4988803;28;19929;-78
2022/10/30 01:09:00;;;;;;;;;;;;;;;11.85;100.00;100663.00;4991045;28;19918;-78
2022/10/30 01:11:26;;;;;;;;;;;;;;;11.84;100.00;100661.47;4972046;28;19918;-78
2022/10/30 01:13:52;;;;;;;;;;;;;;;11.89;100.00;100662.94;4991393;28;19925;-78
2022/10/30 01:16:36;;;;;;;;;;;;;;;11.86;100.00;100653.47;4993170;28;19918;-78
2022/10/30 01:19:25;;;;;;;;;;;;;;;11.87;100.00;100649.47;4990366;28;19960;-78
2022/10/30 01:21:53;;;;;;;;;;;;;;;11.88;100.00;100645.47;4968114;28;19918;-78
2022/10/30 01:24:28;;;;;;;;;;;;;;;11.89;100.00;100643.50;4986953;28;19918;-78
2022/10/30 01:27:02;;;;;;;;;;;;;;;11.84;100.00;100644.78;4989030;28;19918;-78
2022/10/30 01:29:38;;;;;;;;;;;;;;;11.86;100.00;100638.78;4969547;28;19918;-78
2022/10/30 01:32:23;;;;;;;;;;;;;;;11.82;100.00;100641.63;4976186;28;19925;-78
2022/10/30 01:34:48;;;;;;;;;;;;;;;11.77;100.00;100639.34;4990072;28;19925;-78
2022/10/30 01:37:33;;;;;;;;;;;;;;;11.75;100.00;100632.66;4982750;28;19918;-78
2022/10/30 01:40:02;;;;;;;;;;;;;;;11.70;100.00;100645.03;4992724;28;20300;-78
2022/10/30 01:42:48;;;;;;;;;;;;;;;11.64;100.00;100625.34;4992368;28;20362;-78
2022/10/30 01:45:35;;;;;;;;;;;;;;;11.57;100.00;100613.56;4992482;28;20388;-78
2022/10/30 01:48:02;;;;;;;;;;;;;;;11.56;100.00;100617.56;5006192;28;19925;-78
2022/10/30 01:50:36;;;;;;;;;;;;;;;11.59;100.00;100600.03;4990826;28;20048;-78
2022/10/30 01:53:02;;;;;;;;;;;;;;;11.53;100.00;100610.88;4990388;28;20292;-78
2022/10/30 01:55:30;;;;;;;;;;;;;;;11.50;100.00;100622.84;4991513;28;19922;-78
2022/10/30 01:58:01;;;;;;;;;;;;;;;11.48;100.00;100616.16;4990281;28;19918;-78
2022/10/30 02:00:26;;;;;;;;;;;;;;;11.51;100.00;100615.31;4989164;28;19917;-78
2022/10/30 02:02:52;;;;;;;;;;;;;;;11.52;100.00;100611.31;5253375;23;19929;-85
2022/10/30 02:05:25;;;;;;;;;;;;;;;11.50;100.00;100619.28;4973538;28;20460;-84
2022/10/30 02:07:52;;;;;;;;;;;;;;;11.52;100.00;100608.53;4971834;28;19996;-84
2022/10/30 02:10:18;;;;;;;;;;;;;;;11.57;100.00;100619.13;4952482;28;19985;-84
2022/10/30 02:12:43;;;;;;;;;;;;;;;11.63;100.00;100617.41;4972361;28;20030;-83
2022/10/30 02:15:10;;;;;;;;;;;;;;;11.62;100.00;100615.84;4970174;28;20392;-83
2022/10/30 02:17:37;;;;;;;;;;;;;;;11.61;100.00;100619.81;4971376;28;19921;-83
2022/10/30 02:20:05;;;;;;;;;;;;;;;11.63;100.00;100611.88;4975945;28;19921;-85
2022/10/30 02:22:30;;;;;;;;;;;;;;;11.65;100.00;100603.88;4970571;28;19924;-84
2022/10/30 02:24:55;;;;;;;;;;;;;;;11.64;100.00;100607.88;4968597;28;19914;-84
2022/10/30 02:27:23;;;;;;;;;;;;;;;11.62;100.00;100605.50;4956845;28;19926;-85
2022/10/30 02:29:48;;;;;;;;;;;;;;;11.60;100.00;100593.28;4960000;28;20325;-85
2022/10/30 02:32:14;;;;;;;;;;;;;;;11.57;100.00;100608.78;4973836;28;19926;-85
2022/10/30 02:34:41;;;;;;;;;;;;;;;11.61;100.00;100608.72;4986383;28;20300;-85
2022/10/30 02:37:07;;;;;;;;;;;;;;;11.52;100.00;100605.75;4967054;28;19918;-84
2022/10/30 02:39:32;;;;;;;;;;;;;;;11.55;100.00;100607.69;4975732;28;20336;-84
2022/10/30 02:42:00;;;;;;;;;;;;;;;11.58;100.00;100599.25;4975434;28;19948;-85
2022/10/30 02:44:26;;;;;;;;;;;;;;;11.52;100.00;100603.78;4984298;28;19971;-84
2022/10/30 02:46:51;;;;;;;;;;;;;;;11.57;100.00;100591.34;4982786;28;20017;-84
2022/10/30 02:49:17;;;;;;;;;;;;;;;11.53;100.00;100596.19;4971790;28;19918;-84
2022/10/30 02:51:43;;;;;;;;;;;;;;;11.52;100.00;100600.19;4974842;28;19929;-84
2022/10/30 02:54:10;;;;;;;;;;;;;;;11.56;100.00;100595.34;4976747;28;20316;-84
2022/10/30 02:56:38;;;;;;;;;;;;;;;11.59;100.00;100595.28;4985450;28;19918;-85
2022/10/30 02:59:04;;;;;;;;;;;;;;;11.63;100.00;100595.97;4986771;28;20013;-84
2022/10/30 03:01:29;;;;;;;;;;;;;;;11.59;100.00;100588.94;4969523;28;20044;-85
2022/10/30 03:03:57;;;;;;;;;;;;;;;11.64;100.00;100597.56;4939822;28;19925;-85
2022/10/30 03:06:22;;;;;;;;;;;;;;;11.62;100.00;100604.72;4955186;28;19918;-84
2022/10/30 03:08:49;;;;;;;;;;;;;;;11.62;100.00;100602.75;4954879;28;20377;-85
2022/10/30 03:11:15;;;;;;;;;;;;;;;11.58;100.00;100609.59;4963976;28;19918;-85
2022/10/30 03:13:40;;;;;;;;;;;;;;;11.56;100.00;100603.69;4970235;28;20460;-85
2022/10/30 03:16:09;;;;;;;;;;;;;;;11.55;100.00;100602.13;4954950;28;20377;-85
2022/10/30 03:18:34;;;;;;;;;;;;;;;11.49;100.00;100607.38;4970816;28;19965;-85
2022/10/30 03:21:07;;;;;;;;;;;;;;;11.50;100.00;100602.63;4972120;28;19918;-85
2022/10/30 03:23:33;;;;;;;;;;;;;;;11.49;100.00;100604.59;4957986;28;19918;-84
2022/10/30 03:25:59;;;;;;;;;;;;;;;11.54;100.00;100595.00;4965476;28;19953;-85
2022/10/30 03:28:26;;;;;;;;;;;;;;;11.55;100.00;100594.56;4983004;28;19976;-84
2022/10/30 03:30:56;;;;;;;;;;;;;;;11.53;100.00;100604.53;4970225;28;19939;-84
2022/10/30 03:33:22;;;;;;;;;;;;;;;11.48;100.00;100599.50;4957676;28;20000;-84
2022/10/30 03:35:47;;;;;;;;;;;;;;;11.47;100.00;100590.38;4987264;28;20015;-83
2022/10/30 03:38:13;;;;;;;;;;;;;;;11.45;100.00;100589.22;4984719;28;19914;-85
2022/10/30 03:40:38;;;;;;;;;;;;;;;11.49;100.00;100601.81;4973347;28;20277;-85
2022/10/30 03:43:04;;;;;;;;;;;;;;;11.50;100.00;100605.38;4973999;28;20008;-85
2022/10/30 03:45:30;;;;;;;;;;;;;;;11.48;100.00;100596.72;4974231;28;19964;-85
2022/10/30 03:48:02;;;;;;;;;;;;;;;11.44;100.00;100599.56;4958756;28;19988;-85
2022/10/30 03:50:28;;;;;;;;;;;;;;;11.47;100.00;100590.38;4951379;28;20389;-85
2022/10/30 03:52:54;;;;;;;;;;;;;;;11.46;100.00;100596.34;4962261;28;19924;-85
2022/10/30 03:55:19;;;;;;;;;;;;;;;11.50;100.00;100589.50;4952007;28;19969;-85
2022/10/30 03:57:45;;;;;;;;;;;;;;;11.52;100.00;100594.66;4972579;28;19919;-86
2022/10/30 04:00:14;;;;;;;;;;;;;;;11.51;100.00;100593.06;4970886;28;20021;-85
2022/10/30 04:02:44;;;;;;;;;;;;;;;11.50;100.00;100591.50;4957971;28;20008;-85
2022/10/30 04:05:10;;;;;;;;;;;;;;;11.49;100.00;100592.72;4967146;28;20332;-85
2022/10/30 04:07:35;;;;;;;;;;;;;;;11.43;100.00;100597.22;4973651;28;19921;-85
2022/10/30 04:10:01;;;;;;;;;;;;;;;11.38;100.00;100592.94;4955859;28;20012;-85
2022/10/30 04:12:27;;;;;;;;;;;;;;;11.42;100.00;100590.09;4966559;28;20076;-85
2022/10/30 04:14:53;;;;;;;;;;;;;;;11.45;100.00;100578.09;4957276;28;19972;-84
2022/10/30 04:17:18;;;;;;;;;;;;;;;11.42;100.00;100578.97;4969304;28;20601;-84
2022/10/30 04:19:44;;;;;;;;;;;;;;;11.37;100.00;100585.03;4955697;28;19958;-84
2022/10/30 04:22:09;;;;;;;;;;;;;;;11.42;100.00;100587.31;4955181;28;19917;-84
2022/10/30 04:24:38;;;;;;;;;;;;;;;11.41;100.00;100577.41;4957219;28;19918;-84
2022/10/30 04:27:04;;;;;;;;;;;;;;;11.40;100.00;100576.66;4957403;28;19922;-84
2022/10/30 04:29:29;;;;;;;;;;;;;;;11.40;100.00;100581.41;4971205;28;19921;-84
2022/10/30 04:31:54;;;;;;;;;;;;;;;11.35;100.00;100582.69;4954662;28;19925;-84
2022/10/30 04:34:20;;;;;;;;;;;;;;;11.37;100.00;100582.25;4956868;28;20391;-84
2022/10/30 04:36:46;;;;;;;;;;;;;;;11.34;100.00;100580.34;4957353;28;19918;-85
2022/10/30 04:39:11;;;;;;;;;;;;;;;11.25;100.00;100586.47;4956252;28;19914;-84
2022/10/30 04:41:37;;;;;;;;;;;;;;;11.26;100.00;100570.59;4956756;28;19918;-84
2022/10/30 04:44:12;;;;;;;;;;;;;;;11.34;100.00;100580.34;4957622;28;19926;-85
2022/10/30 04:46:38;;;;;;;;;;;;;;;11.30;100.00;100587.97;4972611;28;19945;-84
2022/10/30 04:49:07;;;;;;;;;;;;;;;11.31;100.00;100583.97;4957245;28;20016;-84
2022/10/30 04:51:33;;;;;;;;;;;;;;;11.26;100.00;100581.69;4955833;28;19917;-84
2022/10/30 04:53:59;;;;;;;;;;;;;;;11.19;100.00;100585.41;4957116;28;20257;-84
2022/10/30 04:56:28;;;;;;;;;;;;;;;11.24;100.00;100568.25;4957569;28;19918;-84
2022/10/30 04:58:53;;;;;;;;;;;;;;;11.14;100.00;100575.59;4972267;28;19918;-85
2022/10/30 05:04:04;;;;;;;;;;;;;;;11.08;100.00;100591.16;4994400;28;19992;-84
2022/10/30 05:06:31;;;;;;;;;;;;;;;11.05;100.00;100594.81;4956390;28;20376;-85
2022/10/30 05:08:56;;;;;;;;;;;;;;;11.06;100.00;100593.59;4972501;28;20017;-85
2022/10/30 05:11:37;;;;;;;;;;;;;;;11.05;100.00;100599.56;4971671;28;20008;-84
2022/10/30 05:14:02;;;;;;;;;;;;;;;11.08;100.00;100599.50;4973111;28;20010;-84
2022/10/30 05:16:27;;;;;;;;;;;;;;;10.98;100.00;100594.94;4972130;28;19922;-84
2022/10/30 05:18:54;;;;;;;;;;;;;;;11.05;100.00;100600.34;4972885;28;20426;-85
2022/10/30 05:21:20;;;;;;;;;;;;;;;11.06;100.00;100601.94;4966294;28;19961;-83
2022/10/30 05:23:46;;;;;;;;;;;;;;;11.10;100.00;100607.41;4971800;28;19918;-84
2022/10/30 05:26:11;;;;;;;;;;;;;;;11.02;100.00;100606.78;4987785;28;19951;-84
2022/10/30 05:28:36;;;;;;;;;;;;;;;11.02;100.00;100600.44;4987192;28;20385;-84
2022/10/30 05:31:03;;;;;;;;;;;;;;;11.06;100.00;100607.47;4976445;28;20369;-84
2022/10/30 05:33:48;;;;;;;;;;;;;;;11.09;100.00;100601.06;4950407;28;19922;-84
2022/10/30 05:36:14;;;;;;;;;;;;;;;11.08;100.00;100616.16;4983857;28;19933;-84
2022/10/30 05:38:40;;;;;;;;;;;;;;;11.15;100.00;100609.69;4954127;28;20341;-84
2022/10/30 05:41:10;;;;;;;;;;;;;;;11.16;100.00;100614.81;4957972;28;20376;-84
2022/10/30 05:43:35;;;;;;;;;;;;;;;11.15;100.00;100613.25;4987290;28;19918;-84
2022/10/30 05:46:01;;;;;;;;;;;;;;;11.20;100.00;100618.28;4967939;28;19929;-84
2022/10/30 05:48:26;;;;;;;;;;;;;;;11.15;100.00;100627.16;4953988;28;20228;-85
2022/10/30 05:50:54;;;;;;;;;;;;;;;11.14;100.00;100630.34;4953823;28;19925;-85
2022/10/30 05:53:28;;;;;;;;;;;;;;;11.00;100.00;100625.81;4948397;28;20361;-85
2022/10/30 05:55:58;;;;;;;;;;;;;;;11.04;100.00;100618.22;4949352;28;19976;-85
2022/10/30 05:58:28;;;;;;;;;;;;;;;11.05;100.00;100614.25;4950100;28;19932;-85
2022/10/30 06:00:56;;;;;;;;;;;;;;;11.02;100.00;100617.88;4962311;28;19918;-84
2022/10/30 06:03:36;;;;;;;;;;;;;;;11.01;100.00;100621.06;4953082;28;19961;-83
2022/10/30 06:06:02;;;;;;;;;;;;;;;11.06;100.00;100621.38;4952787;28;20321;-84
2022/10/30 06:08:28;;;;;;;;;;;;;;;11.11;100.00;100620.88;4967084;28;19997;-85
2022/10/30 06:10:56;;;;;;;;;;;;;;;11.12;100.00;100616.88;4955654;28;20278;-84
2022/10/30 06:13:26;;;;;;;;;;;;;;;11.08;100.00;100624.47;4970860;28;19918;-85
2022/10/30 06:16:01;;;;;;;;;;;;;;;11.09;100.00;100633.59;4982306;28;20452;-84
2022/10/30 06:18:41;;;;;;;;;;;;;;;11.05;100.00;100621.78;4952914;28;19923;-84
2022/10/30 06:21:09;;;;;;;;;;;;;;;11.05;100.00;100628.13;4957136;28;19957;-84
2022/10/30 06:23:47;;;;;;;;;;;;;;;11.12;100.00;100630.75;4964669;28;20378;-86
2022/10/30 06:26:26;;;;;;;;;;;;;;;11.11;100.00;100637.53;4954775;28;20297;-86
2022/10/30 06:28:55;;;;;;;;;;;;;;;11.06;100.00;100638.03;4958103;28;20396;-85
2022/10/30 06:31:21;;;;;;;;;;;;;;;11.06;100.00;100638.03;4952479;28;19918;-86
2022/10/30 06:33:46;;;;;;;;;;;;;;;11.03;100.00;100641.66;4955446;28;19928;-85
2022/10/30 06:36:13;;;;;;;;;;;;;;;11.10;100.00;100632.41;4954251;28;19973;-84
2022/10/30 06:38:39;;;;;;;;;;;;;;;11.08;100.00;100643.16;4954448;28;19918;-84
2022/10/30 06:41:06;;;;;;;;;;;;;;;11.17;100.00;100643.34;4954205;28;19914;-84
2022/10/30 06:43:31;;;;;;;;;;;;;;;11.14;100.00;100642.22;4969160;28;19925;-84
2022/10/30 06:46:02;;;;;;;;;;;;;;;11.11;100.00;100651.41;4955434;28;19930;-84
2022/10/30 06:48:29;;;;;;;;;;;;;;;11.17;100.00;100657.25;4976055;28;19930;-84
2022/10/30 06:50:55;;;;;;;;;;;;;;;11.18;100.00;100653.25;4967782;28;19919;-84
2022/10/30 06:53:22;;;;;;;;;;;;;;;11.14;100.00;100650.56;4954018;28;19953;-84
2022/10/30 06:55:57;;;;;;;;;;;;;;;11.16;100.00;100662.00;4965493;28;19921;-84
2022/10/30 06:58:45;;;;;;;;;;;;;;;11.20;100.00;100664.75;4964132;28;19922;-85
2022/10/30 07:01:30;;;;;;;;;;;;;;;11.23;100.00;100664.66;4976264;28;19949;-84
2022/10/30 07:04:09;;;;;;;;;;;;;;;11.22;100.00;100665.88;4963940;28;19919;-85
2022/10/30 07:06:35;;;;;;;;;;;;;;;11.19;100.00;100663.16;4960331;28;21168;-85
2022/10/30 07:09:00;;;;;;;;;;;;;;;11.20;100.00;100668.28;4956114;28;19965;-85
2022/10/30 07:11:26;;;;;;;;;;;;;;;11.15;100.00;100670.78;4956424;28;20338;-85
2022/10/30 07:14:01;;;;;;;;;;;;;;;11.15;100.00;100668.78;4955455;28;19922;-85
2022/10/30 07:16:36;;;;;;;;;;;;;;;11.14;100.00;100667.22;4956081;28;19976;-85
2022/10/30 07:19:01;;;;;;;;;;;;;;;11.03;100.00;100674.19;4956665;28;19997;-84
2022/10/30 07:21:27;;;;;;;;;;;;;;;11.06;100.00;100676.09;4976964;28;20246;-85
2022/10/30 07:23:53;;;;;;;;;;;;;;;11.12;100.00;100671.63;4982624;28;19925;-84
2022/10/30 07:26:26;;;;;;;;;;;;;;;11.19;100.00;100677.84;4958514;28;20385;-85
2022/10/30 07:28:54;;;;;;;;;;;;;;;11.15;100.00;100671.56;4971842;28;20001;-85
2022/10/30 07:31:23;;;;;;;;;;;;;;;11.20;100.00;100679.38;4956419;28;19921;-84
2022/10/30 07:33:49;;;;;;;;;;;;;;;11.20;100.00;100679.38;4974125;28;19929;-83
2022/10/30 07:36:36;;;;;;;;;;;;;;;11.13;100.00;100687.06;4973061;28;19914;-84
2022/10/30 07:39:21;;;;;;;;;;;;;;;11.21;100.00;100680.16;4974534;28;19929;-84
2022/10/30 07:42:13;;;;;;;;;;;;;;;11.20;100.00;100684.19;4970923;28;20020;-85
2022/10/30 07:45:02;;;;;;;;;;;;;;;11.30;100.00;100676.84;4967351;28;20369;-84
2022/10/30 07:47:51;;;;;;;;;;;;;;;11.33;100.00;100675.97;4956974;28;20422;-83
2022/10/30 07:50:25;;;;;;;;;;;;;;;11.33;100.00;100673.97;4955170;28;19977;-83
2022/10/30 07:52:50;;;;;;;;;;;;;;;11.28;100.00;100671.72;4938631;28;19926;-83
2022/10/30 07:55:20;;;;;;;;;;;;;;;11.27;100.00;100666.59;4953622;28;19918;-83
2022/10/30 07:57:47;;;;;;;;;;;;;;;11.30;100.00;100671.28;4971501;28;19948;-83
2022/10/30 08:00:25;;;;;;;;;;;;;;;11.33;100.00;100675.97;4950321;28;19924;-83
2022/10/30 08:03:00;;;;;;;;;;;;;;;11.36;100.00;100675.16;4988218;28;20377;-83
2022/10/30 08:06:01;;;;;;;;;;;;;;;11.38;100.00;100676.28;4929937;29;20437;-87
2022/10/30 08:08:37;;;;;;;;;;;;;;;11.39;100.00;100677.06;4963184;28;20252;-84
2022/10/30 08:11:31;;;;;;;;;;;;;;;11.43;100.00;100675.00;4968330;28;20244;-83
2022/10/30 08:13:57;;;;;;;;;;;;;;;11.44;100.00;100668.25;4969487;28;20000;-84
2022/10/30 08:16:23;;;;;;;;;;;;;;;11.44;100.00;100669.03;4956361;28;19925;-82
2022/10/30 08:18:48;;;;;;;;;;;;;;;11.51;100.00;100670.88;4956457;28;20073;-85
2022/10/30 08:21:16;;;;;;;;;;;;;;;11.59;100.00;100678.63;4954970;28;19918;-85
2022/10/30 08:23:55;;;;;;;;;;;;;;;11.63;100.00;100681.34;4972371;28;19972;-84
2022/10/30 08:26:24;;;;;;;;;;;;;;;11.57;100.00;100667.16;4956451;28;19922;-84
2022/10/30 08:28:49;;;;;;;;;;;;;;;11.63;100.00;100678.56;4953870;28;19922;-85
2022/10/30 08:31:15;;;;;;;;;;;;;;;11.59;100.00;100689.75;4973390;28;19918;-84
2022/10/30 08:34:03;;;;;;;;;;;;;;;11.54;100.00;100665.22;4967207;28;19984;-84
2022/10/30 08:36:58;;;;;;;;;;;;;;;11.51;100.00;100687.53;4962264;28;20369;-84
2022/10/30 08:39:40;;;;;;;;;;;;;;;11.43;100.00;100677.78;4968748;28;19914;-82
2022/10/30 08:42:29;;;;;;;;;;;;;;;11.58;100.00;100679.84;4964728;28;19918;-85
2022/10/30 08:44:56;;;;;;;;;;;;;;;11.56;100.00;100681.47;4966867;28;20013;-85
2022/10/30 08:47:45;;;;;;;;;;;;;;;11.57;100.00;100685.81;4969052;28;20297;-85
2022/10/30 08:50:11;;;;;;;;;;;;;;;11.65;100.00;100692.78;4975476;28;19925;-85
2022/10/30 08:52:37;;;;;;;;;;;;;;;11.79;100.00;100691.75;4950596;28;19914;-85
2022/10/30 08:55:02;;;;;;;;;;;;;;;11.81;100.00;100673.41;4954742;28;19921;-85
2022/10/30 08:57:42;;;;;;;;;;;;;;;11.54;100.00;100690.22;4967899;28;20277;-86
2022/10/30 09:00:07;;;;;;;;;;;;;;;11.59;100.00;100677.84;4966750;28;20393;-85
2022/10/30 09:02:53;;;;;;;;;;;;;;;11.55;100.00;100674.34;4965437;28;19918;-85
2022/10/30 09:05:37;;;;;;;;;;;;;;;11.59;100.00;100666.72;4970978;28;19932;-86
2022/10/30 09:08:31;;;;;;;;;;;;;;;11.64;100.00;100661.47;4971137;28;19918;-86
2022/10/30 09:11:13;;;;;;;;;;;;;;;11.72;100.00;100664.91;4954112;28;19929;-84
2022/10/30 09:13:38;;;;;;;;;;;;;;;11.75;100.00;100669.59;4950842;28;19922;-86
2022/10/30 09:16:05;;;;;;;;;;;;;;;11.62;100.00;100671.41;4967884;28;19926;-86
2022/10/30 09:18:34;;;;;;;;;;;;;;;11.64;100.00;100685.69;4953257;28;20358;-86
2022/10/30 09:20:59;;;;;;;;;;;;;;;11.81;100.00;100678.22;4955039;28;19918;-86
2022/10/30 09:23:36;;;;;;;;;;;;;;;11.72;100.00;100686.34;4971816;28;20340;-85
2022/10/30 09:26:20;;;;;;;;;;;;;;;11.84;100.00;100678.13;4971519;28;20016;-85
2022/10/30 09:29:14;;;;;;;;;;;;;;;11.77;100.00;100675.50;4987265;28;19917;-85
2022/10/30 09:31:58;;;;;;;;;;;;;;;11.89;100.00;100685.19;4964400;28;19976;-86
2022/10/30 09:34:26;;;;;;;;;;;;;;;11.90;100.00;100687.53;4966192;28;20017;-86
2022/10/30 09:37:11;;;;;;;;;;;;;;;11.78;100.00;100695.72;4971184;28;19921;-86
2022/10/30 09:39:37;;;;;;;;;;;;;;;11.70;100.00;100695.06;4955443;28;20389;-86
2022/10/30 09:42:10;;;;;;;;;;;;;;;11.75;100.00;100686.28;4956738;28;19977;-85
2022/10/30 09:45:00;;;;;;;;;;;;;;;11.77;100.00;100683.81;4968181;28;19925;-85
2022/10/30 09:47:32;;;;;;;;;;;;;;;11.86;100.00;100686.81;4937019;29;19922;-86
2022/10/30 09:49:57;;;;;;;;;;;;;;;11.88;100.00;100689.97;4985163;28;19973;-86
2022/10/30 09:52:31;;;;;;;;;;;;;;;11.90;100.00;100687.53;4955447;28;19918;-84
2022/10/30 09:55:00;;;;;;;;;;;;;;;11.97;100.00;100686.59;4967857;28;19948;-85
2022/10/30 09:57:49;;;;;;;;;;;;;;;11.99;100.00;100690.50;4971276;28;19972;-85
2022/10/30 10:00:16;;;;;;;;;;;;;;;11.97;100.00;100681.78;4970400;28;19918;-85
2022/10/30 10:02:48;;;;;;;;;;;;;;;11.99;100.00;100679.38;4986877;28;19921;-83
2022/10/30 10:05:21;;;;;;;;;;;;;;;12.08;100.00;100678.78;4951641;28;19924;-85
2022/10/30 10:08:06;;;;;;;;;;;;;;;12.14;100.00;100683.41;4969215;28;20396;-85
2022/10/30 10:10:58;;;;;;;;;;;;;;;12.24;100.00;100680.81;4970796;28;19928;-85
2022/10/30 10:13:42;;;;;;;;;;;;;;;12.26;100.00;100672.81;4975046;28;20397;-86
2022/10/30 10:16:49;;;;;;;;;;;;;;;12.22;100.00;100674.88;4977921;28;19992;-85
2022/10/30 10:19:17;;;;;;;;;;;;;;;12.15;100.00;100676.63;4945355;29;19918;-86
2022/10/30 10:21:44;;;;;;;;;;;;;;;12.29;100.00;100683.09;4952935;28;20029;-84
2022/10/30 10:24:29;;;;;;;;;;;;;;;12.40;100.00;100669.69;4981939;28;20077;-86
2022/10/30 10:26:54;;;;;;;;;;;;;;;12.42;100.00;100678.38;4967446;28;19925;-86
2022/10/30 10:29:19;;;;;;;;;;;;;;;12.49;100.00;100672.66;4969109;28;19918;-86
2022/10/30 10:31:45;;;;;;;;;;;;;;;12.53;100.00;100674.16;4966665;28;19949;-86
2022/10/30 10:34:34;;;;;;;;;;;;;;;12.42;100.00;100678.38;4965567;28;19975;-86
2022/10/30 10:37:08;;;;;;;;;;;;;;;12.48;100.00;100671.09;4964606;28;20294;-86
2022/10/30 10:39:52;;;;;;;;;;;;;;;12.51;100.00;100675.78;4980253;28;19918;-87
2022/10/30 10:42:27;;;;;;;;;;;;;;;12.60;100.00;100671.19;4976831;28;20423;-85
2022/10/30 10:44:55;;;;;;;;;;;;;;;12.60;100.00;100665.63;4978664;28;19925;-84
2022/10/30 10:47:31;;;;;;;;;;;;;;;12.70;100.00;100666.56;4964370;28;19922;-85
2022/10/30 10:50:16;;;;;;;;;;;;;;;12.73;100.00;100668.47;4968729;28;19989;-85
2022/10/30 10:53:06;;;;;;;;;;;;;;;12.78;100.00;100650.47;4978852;28;20389;-84
2022/10/30 10:55:32;;;;;;;;;;;;;;;12.85;100.00;100662.22;4966247;28;19926;-85
2022/10/30 10:58:11;;;;;;;;;;;;;;;12.95;100.00;100654.78;4935752;28;19957;-84
2022/10/30 11:00:39;;;;;;;;;;;;;;;12.83;100.00;100653.50;4980378;28;19968;-86
2022/10/30 11:03:06;;;;;;;;;;;;;;;12.75;100.00;100649.34;4967272;28;20080;-86
2022/10/30 11:05:32;;;;;;;;;;;;;;;12.82;100.00;100656.72;4962319;28;20053;-86
2022/10/30 11:07:58;;;;;;;;;;;;;;;12.91;100.00;100643.72;4952221;28;20005;-85
2022/10/30 11:10:35;;;;;;;;;;;;;;;12.91;100.00;100654.88;4963486;28;20013;-86
2022/10/30 11:13:02;;;;;;;;;;;;;;;12.94;100.00;100653.22;4966185;28;19918;-86
2022/10/30 11:15:37;;;;;;;;;;;;;;;12.95;100.00;100650.00;4966891;28;19929;-89
2022/10/30 11:18:06;;;;;;;;;;;;;;;12.85;100.00;100651.06;4979138;28;19945;-88
2022/10/30 11:20:45;;;;;;;;;;;;;;;12.96;100.00;100640.44;4982535;28;19929;-87
2022/10/30 11:23:29;;;;;;;;;;;;;;;12.88;100.00;100649.41;4980020;28;19922;-89
2022/10/30 11:25:55;;;;;;;;;;;;;;;13.01;100.00;100641.91;4968269;28;20337;-90
2022/10/30 11:28:39;;;;;;;;;;;;;;;12.98;100.00;100649.09;4964715;28;20020;-88
2022/10/30 11:31:16;;;;;;;;;;;;;;;12.94;100.00;100637.28;4952611;28;19989;-88
2022/10/30 11:33:42;;;;;;;;;;;;;;;13.11;100.00;100642.84;4966940;28;19926;-85
2022/10/30 11:36:07;;;;;;;;;;;;;;;13.14;100.00;100636.41;4969608;28;19949;-85
2022/10/30 11:38:46;;;;;;;;;;;;;;;13.09;100.00;100641.28;4970298;28;19986;-85
2022/10/30 11:41:12;;;;;;;;;;;;;;;13.03;100.00;100640.22;4969863;28;20005;-85
2022/10/30 11:43:38;;;;;;;;;;;;;;;13.08;100.00;100639.69;4951748;28;20005;-85
2022/10/30 11:46:08;;;;;;;;;;;;;;;12.93;100.00;100641.31;4968093;28;19922;-84
2022/10/30 11:48:33;;;;;;;;;;;;;;;12.63;100.00;100633.34;4953738;28;20378;-83
2022/10/30 11:51:10;;;;;;;;;;;;;;;12.83;100.00;100636.00;4953804;28;19922;-85
2022/10/30 11:53:39;;;;;;;;;;;;;;;12.80;100.00;100626.53;4967055;28;19925;-85
2022/10/30 11:56:15;;;;;;;;;;;;;;;12.74;100.00;100628.28;4954430;28;19922;-85
2022/10/30 11:58:53;;;;;;;;;;;;;;;12.74;100.00;100628.28;4951840;28;19926;-85
2022/10/30 12:01:57;;;;;;;;;;;;;;;12.75;100.00;100629.84;4957659;28;20020;-85
2022/10/30 12:04:23;;;;;;;;;;;;;;;12.82;100.00;100629.66;4984574;28;20024;-85
2022/10/30 12:07:21;;;;;;;;;;;;;;;12.81;100.00;100611.41;4958209;28;20393;-85
2022/10/30 12:09:47;;;;;;;;;;;;;;;12.71;100.00;100614.44;4969302;28;19923;-85
2022/10/30 12:12:15;;;;;;;;;;;;;;;12.53;100.00;100623.28;4952566;28;19926;-85
2022/10/30 12:14:49;;;;;;;;;;;;;;;12.76;100.00;100617.50;4969893;28;19918;-85
2022/10/30 12:17:15;;;;;;;;;;;;;;;12.79;100.00;100613.84;4954063;28;19922;-85
2022/10/30 12:19:44;;;;;;;;;;;;;;;12.81;100.00;100608.63;4952278;28;19937;-85
2022/10/30 12:22:10;;;;;;;;;;;;;;;12.80;100.00;100609.84;4967928;28;19925;-85
2022/10/30 12:24:36;;;;;;;;;;;;;;;12.72;100.00;100613.25;4952351;28;19918;-85
2022/10/30 12:27:13;;;;;;;;;;;;;;;12.74;100.00;100611.56;4953253;28;20413;-85
2022/10/30 12:29:43;;;;;;;;;;;;;;;12.77;100.00;100621.84;4952465;28;19922;-85
2022/10/30 12:32:10;;;;;;;;;;;;;;;12.75;100.00;100621.50;4968834;28;19965;-84
2022/10/30 12:34:41;;;;;;;;;;;;;;;12.68;100.00;100612.56;4953422;28;19922;-85
2022/10/30 12:37:21;;;;;;;;;;;;;;;12.57;100.00;100615.63;4968353;28;19922;-84
2022/10/30 12:39:53;;;;;;;;;;;;;;;12.57;100.00;100608.06;4952427;28;19961;-85
2022/10/30 12:42:21;;;;;;;;;;;;;;;12.62;100.00;100609.50;4981553;28;20437;-85
2022/10/30 12:44:52;;;;;;;;;;;;;;;12.76;100.00;100598.00;4968395;28;19921;-85
2022/10/30 12:47:29;;;;;;;;;;;;;;;12.78;100.00;100606.69;4985787;28;20334;-85
2022/10/30 12:49:59;;;;;;;;;;;;;;;12.81;100.00;100585.56;4969077;28;19925;-85